sensor_id;sensor_type;location;lat;lon;timestamp;P1;durP1;ratioP1;P2;durP2;ratioP2
73454;SDS011;61690;51.824;6.306;2023-02-15T00:01:19;4.37;;;1.60;;
73454;SDS011;61690;51.824;6.306;2023-02-15T00:03:47;4.57;;;1.73;;
73454;SDS011;61690;51.824;6.306;2023-02-15T00:06:13;4.93;;;1.70;;
73454;SDS011;61690;51.824;6.306;2023-02-15T00:08:39;4.63;;;1.75;;
73454;SDS011;61690;51.824;6.306;2023-02-15T00:11:08;4.70;;;1.70;;
73454;SDS011;61690;51.824;6.306;2023-02-15T00:13:35;4.72;;;1.90;;
73454;SDS011;61690;51.824;6.306;2023-02-15T00:16:07;4.77;;;1.80;;
73454;SDS011;61690;51.824;6.306;2023-02-15T00:18:39;4.75;;;1.80;;
73454;SDS011;61690;51.824;6.306;2023-02-15T00:21:05;5.07;;;2.05;;
73454;SDS011;61690;51.824;6.306;2023-02-15T00:23:33;4.63;;;1.73;;
73454;SDS011;61690;51.824;6.306;2023-02-15T00:26:11;4.38;;;1.88;;
73454;SDS011;61690;51.824;6.306;2023-02-15T00:28:37;4.30;;;1.60;;
73454;SDS011;61690;51.824;6.306;2023-02-15T00:33:28;4.10;;;1.63;;
73454;SDS011;61690;51.824;6.306;2023-02-15T00:35:58;4.50;;;1.80;;
73454;SDS011;61690;51.824;6.306;2023-02-15T00:38:24;4.13;;;1.60;;
73454;SDS011;61690;51.824;6.306;2023-02-15T00:40:54;4.32;;;1.83;;
73454;SDS011;61690;51.824;6.306;2023-02-15T00:43:21;4.53;;;1.75;;
73454;SDS011;61690;51.824;6.306;2023-02-15T00:45:46;4.35;;;1.45;;
73454;SDS011;61690;51.824;6.306;2023-02-15T00:48:12;4.43;;;1.67;;
73454;SDS011;61690;51.824;6.306;2023-02-15T00:50:37;4.03;;;1.60;;
73454;SDS011;61690;51.824;6.306;2023-02-15T00:53:02;4.47;;;1.70;;
73454;SDS011;61690;51.824;6.306;2023-02-15T00:55:28;4.80;;;1.80;;
73454;SDS011;61690;51.824;6.306;2023-02-15T00:57:53;4.97;;;2.10;;
73454;SDS011;61690;51.824;6.306;2023-02-15T01:00:18;4.33;;;2.07;;
73454;SDS011;61690;51.824;6.306;2023-02-15T01:02:44;4.87;;;1.80;;
73454;SDS011;61690;51.824;6.306;2023-02-15T01:05:09;4.23;;;1.80;;
73454;SDS011;61690;51.824;6.306;2023-02-15T01:07:34;4.43;;;1.67;;
73454;SDS011;61690;51.824;6.306;2023-02-15T01:09:59;3.87;;;1.50;;
73454;SDS011;61690;51.824;6.306;2023-02-15T01:12:25;5.50;;;2.10;;
73454;SDS011;61690;51.824;6.306;2023-02-15T01:14:50;4.63;;;2.00;;
73454;SDS011;61690;51.824;6.306;2023-02-15T01:17:15;4.97;;;2.07;;
73454;SDS011;61690;51.824;6.306;2023-02-15T01:19:41;3.90;;;1.57;;
73454;SDS011;61690;51.824;6.306;2023-02-15T01:22:06;4.30;;;1.80;;
73454;SDS011;61690;51.824;6.306;2023-02-15T01:24:31;4.68;;;1.90;;
73454;SDS011;61690;51.824;6.306;2023-02-15T01:26:57;4.30;;;1.83;;
73454;SDS011;61690;51.824;6.306;2023-02-15T01:29:22;4.17;;;1.67;;
73454;SDS011;61690;51.824;6.306;2023-02-15T01:31:47;4.60;;;1.90;;
73454;SDS011;61690;51.824;6.306;2023-02-15T01:34:12;4.57;;;2.10;;
73454;SDS011;61690;51.824;6.306;2023-02-15T01:36:38;4.97;;;1.80;;
73454;SDS011;61690;51.824;6.306;2023-02-15T01:39:03;4.37;;;1.70;;
73454;SDS011;61690;51.824;6.306;2023-02-15T01:41:28;4.30;;;1.60;;
73454;SDS011;61690;51.824;6.306;2023-02-15T01:44:01;4.87;;;1.80;;
73454;SDS011;61690;51.824;6.306;2023-02-15T01:46:32;4.78;;;1.88;;
73454;SDS011;61690;51.824;6.306;2023-02-15T01:49:05;4.35;;;1.60;;
73454;SDS011;61690;51.824;6.306;2023-02-15T01:51:37;4.37;;;1.90;;
73454;SDS011;61690;51.824;6.306;2023-02-15T01:54:09;4.32;;;1.83;;
73454;SDS011;61690;51.824;6.306;2023-02-15T01:56:42;3.95;;;1.65;;
73454;SDS011;61690;51.824;6.306;2023-02-15T01:59:09;4.23;;;1.70;;
73454;SDS011;61690;51.824;6.306;2023-02-15T02:01:39;4.70;;;2.10;;
73454;SDS011;61690;51.824;6.306;2023-02-15T02:04:10;4.10;;;1.60;;
73454;SDS011;61690;51.824;6.306;2023-02-15T02:06:40;5.55;;;1.80;;
73454;SDS011;61690;51.824;6.306;2023-02-15T02:09:06;4.40;;;1.80;;
73454;SDS011;61690;51.824;6.306;2023-02-15T02:11:31;3.90;;;1.63;;
73454;SDS011;61690;51.824;6.306;2023-02-15T02:13:57;4.07;;;1.50;;
73454;SDS011;61690;51.824;6.306;2023-02-15T02:16:25;4.43;;;1.93;;
73454;SDS011;61690;51.824;6.306;2023-02-15T02:19:01;4.22;;;1.42;;
73454;SDS011;61690;51.824;6.306;2023-02-15T02:30:16;4.18;;;1.52;;
73454;SDS011;61690;51.824;6.306;2023-02-15T02:43:33;4.07;;;1.70;;
73454;SDS011;61690;51.824;6.306;2023-02-15T02:46:42;4.43;;;1.60;;
73454;SDS011;61690;51.824;6.306;2023-02-15T02:49:04;4.18;;;1.80;;
73454;SDS011;61690;51.824;6.306;2023-02-15T02:51:29;4.97;;;1.80;;
73454;SDS011;61690;51.824;6.306;2023-02-15T02:53:55;4.50;;;1.93;;
73454;SDS011;61690;51.824;6.306;2023-02-15T02:58:59;4.60;;;1.90;;
73454;SDS011;61690;51.824;6.306;2023-02-15T03:01:35;4.53;;;1.47;;
73454;SDS011;61690;51.824;6.306;2023-02-15T03:04:10;4.43;;;1.77;;
73454;SDS011;61690;51.824;6.306;2023-02-15T03:06:45;3.95;;;1.50;;
73454;SDS011;61690;51.824;6.306;2023-02-15T03:09:18;4.68;;;1.83;;
73454;SDS011;61690;51.824;6.306;2023-02-15T03:11:49;4.60;;;1.70;;
73454;SDS011;61690;51.824;6.306;2023-02-15T03:14:15;4.07;;;1.53;;
73454;SDS011;61690;51.824;6.306;2023-02-15T03:16:43;4.57;;;1.58;;
73454;SDS011;61690;51.824;6.306;2023-02-15T03:19:13;4.10;;;1.58;;
73454;SDS011;61690;51.824;6.306;2023-02-15T03:24:31;4.30;;;1.70;;
73454;SDS011;61690;51.824;6.306;2023-02-15T03:26:59;4.35;;;1.73;;
73454;SDS011;61690;51.824;6.306;2023-02-15T03:29:29;4.93;;;1.90;;
73454;SDS011;61690;51.824;6.306;2023-02-15T03:31:57;5.28;;;1.80;;
73454;SDS011;61690;51.824;6.306;2023-02-15T03:34:25;4.10;;;1.60;;
73454;SDS011;61690;51.824;6.306;2023-02-15T03:39:39;4.28;;;1.50;;
73454;SDS011;61690;51.824;6.306;2023-02-15T03:45:01;4.28;;;1.70;;
73454;SDS011;61690;51.824;6.306;2023-02-15T03:47:43;4.30;;;1.80;;
73454;SDS011;61690;51.824;6.306;2023-02-15T03:50:22;4.28;;;1.58;;
73454;SDS011;61690;51.824;6.306;2023-02-15T03:53:11;4.50;;;2.10;;
73454;SDS011;61690;51.824;6.306;2023-02-15T03:55:40;5.03;;;1.90;;
73454;SDS011;61690;51.824;6.306;2023-02-15T03:58:05;4.27;;;1.63;;
73454;SDS011;61690;51.824;6.306;2023-02-15T04:00:56;3.90;;;1.60;;
73454;SDS011;61690;51.824;6.306;2023-02-15T04:06:28;4.40;;;1.57;;
73454;SDS011;61690;51.824;6.306;2023-02-15T04:08:53;4.78;;;1.70;;
73454;SDS011;61690;51.824;6.306;2023-02-15T04:11:37;4.10;;;1.60;;
73454;SDS011;61690;51.824;6.306;2023-02-15T04:14:02;4.10;;;1.70;;
73454;SDS011;61690;51.824;6.306;2023-02-15T04:16:47;4.22;;;1.50;;
73454;SDS011;61690;51.824;6.306;2023-02-15T04:19:13;4.37;;;1.60;;
73454;SDS011;61690;51.824;6.306;2023-02-15T04:21:56;4.30;;;1.70;;
73454;SDS011;61690;51.824;6.306;2023-02-15T04:24:40;4.47;;;1.85;;
73454;SDS011;61690;51.824;6.306;2023-02-15T04:27:24;5.22;;;1.70;;
73454;SDS011;61690;51.824;6.306;2023-02-15T04:29:50;4.13;;;1.70;;
73454;SDS011;61690;51.824;6.306;2023-02-15T04:32:15;4.13;;;1.60;;
73454;SDS011;61690;51.824;6.306;2023-02-15T04:34:40;3.87;;;1.47;;
73454;SDS011;61690;51.824;6.306;2023-02-15T04:37:05;4.30;;;1.57;;
73454;SDS011;61690;51.824;6.306;2023-02-15T04:39:31;3.93;;;1.70;;
73454;SDS011;61690;51.824;6.306;2023-02-15T04:41:57;4.30;;;1.80;;
73454;SDS011;61690;51.824;6.306;2023-02-15T04:44:22;3.80;;;1.40;;
73454;SDS011;61690;51.824;6.306;2023-02-15T04:46:48;4.30;;;1.87;;
73454;SDS011;61690;51.824;6.306;2023-02-15T04:49:13;4.33;;;1.73;;
73454;SDS011;61690;51.824;6.306;2023-02-15T04:51:38;3.53;;;1.37;;
73454;SDS011;61690;51.824;6.306;2023-02-15T04:54:04;4.67;;;1.40;;
73454;SDS011;61690;51.824;6.306;2023-02-15T04:56:29;4.45;;;1.50;;
73454;SDS011;61690;51.824;6.306;2023-02-15T04:58:56;4.13;;;1.58;;
73454;SDS011;61690;51.824;6.306;2023-02-15T05:01:21;4.00;;;1.60;;
73454;SDS011;61690;51.824;6.306;2023-02-15T05:03:46;4.43;;;1.80;;
73454;SDS011;61690;51.824;6.306;2023-02-15T05:06:12;4.00;;;1.50;;
73454;SDS011;61690;51.824;6.306;2023-02-15T05:08:37;3.83;;;1.47;;
73454;SDS011;61690;51.824;6.306;2023-02-15T05:11:02;3.90;;;1.50;;
73454;SDS011;61690;51.824;6.306;2023-02-15T05:13:27;3.60;;;1.23;;
73454;SDS011;61690;51.824;6.306;2023-02-15T05:15:53;4.10;;;1.43;;
73454;SDS011;61690;51.824;6.306;2023-02-15T05:18:20;4.10;;;1.60;;
73454;SDS011;61690;51.824;6.306;2023-02-15T05:20:46;4.20;;;1.90;;
73454;SDS011;61690;51.824;6.306;2023-02-15T05:23:12;4.10;;;1.50;;
73454;SDS011;61690;51.824;6.306;2023-02-15T05:25:37;4.77;;;1.90;;
73454;SDS011;61690;51.824;6.306;2023-02-15T05:28:22;4.53;;;2.10;;
73454;SDS011;61690;51.824;6.306;2023-02-15T05:30:51;5.10;;;1.98;;
73454;SDS011;61690;51.824;6.306;2023-02-15T05:33:31;4.45;;;1.90;;
73454;SDS011;61690;51.824;6.306;2023-02-15T05:35:57;4.60;;;1.70;;
73454;SDS011;61690;51.824;6.306;2023-02-15T05:38:22;4.33;;;1.67;;
73454;SDS011;61690;51.824;6.306;2023-02-15T05:40:48;6.20;;;2.07;;
73454;SDS011;61690;51.824;6.306;2023-02-15T05:43:13;4.50;;;1.87;;
73454;SDS011;61690;51.824;6.306;2023-02-15T05:45:38;4.40;;;2.00;;
73454;SDS011;61690;51.824;6.306;2023-02-15T05:48:04;4.20;;;1.90;;
73454;SDS011;61690;51.824;6.306;2023-02-15T05:50:29;7.23;;;2.20;;
73454;SDS011;61690;51.824;6.306;2023-02-15T05:52:54;5.90;;;2.00;;
73454;SDS011;61690;51.824;6.306;2023-02-15T05:55:19;4.50;;;1.80;;
73454;SDS011;61690;51.824;6.306;2023-02-15T05:57:45;4.70;;;2.30;;
73454;SDS011;61690;51.824;6.306;2023-02-15T06:00:10;6.72;;;1.90;;
73454;SDS011;61690;51.824;6.306;2023-02-15T06:02:37;5.37;;;1.93;;
73454;SDS011;61690;51.824;6.306;2023-02-15T06:05:03;4.25;;;1.65;;
73454;SDS011;61690;51.824;6.306;2023-02-15T06:07:30;5.35;;;1.70;;
73454;SDS011;61690;51.824;6.306;2023-02-15T06:09:55;5.27;;;2.17;;
73454;SDS011;61690;51.824;6.306;2023-02-15T06:12:20;5.03;;;2.27;;
73454;SDS011;61690;51.824;6.306;2023-02-15T06:14:46;4.85;;;2.10;;
73454;SDS011;61690;51.824;6.306;2023-02-15T06:17:11;4.90;;;2.00;;
73454;SDS011;61690;51.824;6.306;2023-02-15T06:19:36;4.77;;;1.80;;
73454;SDS011;61690;51.824;6.306;2023-02-15T06:22:01;4.90;;;1.77;;
73454;SDS011;61690;51.824;6.306;2023-02-15T06:24:27;3.83;;;1.60;;
73454;SDS011;61690;51.824;6.306;2023-02-15T06:26:52;5.07;;;1.80;;
73454;SDS011;61690;51.824;6.306;2023-02-15T06:29:17;5.30;;;2.20;;
73454;SDS011;61690;51.824;6.306;2023-02-15T06:31:43;5.67;;;2.07;;
73454;SDS011;61690;51.824;6.306;2023-02-15T06:34:08;5.60;;;1.77;;
73454;SDS011;61690;51.824;6.306;2023-02-15T06:36:33;5.05;;;1.90;;
73454;SDS011;61690;51.824;6.306;2023-02-15T06:38:59;4.73;;;2.00;;
73454;SDS011;61690;51.824;6.306;2023-02-15T06:41:24;5.00;;;2.20;;
73454;SDS011;61690;51.824;6.306;2023-02-15T06:43:50;11.53;;;7.30;;
73454;SDS011;61690;51.824;6.306;2023-02-15T06:46:15;7.00;;;3.22;;
73454;SDS011;61690;51.824;6.306;2023-02-15T06:48:41;7.27;;;2.70;;
73454;SDS011;61690;51.824;6.306;2023-02-15T06:51:06;6.90;;;3.07;;
73454;SDS011;61690;51.824;6.306;2023-02-15T06:53:31;6.23;;;2.60;;
73454;SDS011;61690;51.824;6.306;2023-02-15T06:56:00;6.00;;;2.97;;
73454;SDS011;61690;51.824;6.306;2023-02-15T06:58:35;7.20;;;3.17;;
73454;SDS011;61690;51.824;6.306;2023-02-15T07:32:47;5.22;;;2.42;;
73454;SDS011;61690;51.824;6.306;2023-02-15T07:38:52;4.90;;;2.67;;
73454;SDS011;61690;51.824;6.306;2023-02-15T07:41:17;5.07;;;2.30;;
73454;SDS011;61690;51.824;6.306;2023-02-15T07:43:43;5.30;;;2.53;;
73454;SDS011;61690;51.824;6.306;2023-02-15T07:46:11;5.10;;;2.60;;
73454;SDS011;61690;51.824;6.306;2023-02-15T07:48:39;7.63;;;2.58;;
73454;SDS011;61690;51.824;6.306;2023-02-15T07:51:06;6.00;;;2.65;;
73454;SDS011;61690;51.824;6.306;2023-02-15T07:53:33;5.30;;;2.70;;
73454;SDS011;61690;51.824;6.306;2023-02-15T07:56:04;6.43;;;2.47;;
73454;SDS011;61690;51.824;6.306;2023-02-15T07:58:35;5.63;;;2.53;;
73454;SDS011;61690;51.824;6.306;2023-02-15T08:01:16;5.45;;;2.65;;
73454;SDS011;61690;51.824;6.306;2023-02-15T08:04:02;6.40;;;2.78;;
73454;SDS011;61690;51.824;6.306;2023-02-15T08:06:30;5.15;;;2.40;;
73454;SDS011;61690;51.824;6.306;2023-02-15T08:08:57;6.68;;;2.70;;
73454;SDS011;61690;51.824;6.306;2023-02-15T08:11:23;5.30;;;2.50;;
73454;SDS011;61690;51.824;6.306;2023-02-15T08:13:58;8.23;;;2.35;;
73454;SDS011;61690;51.824;6.306;2023-02-15T08:19:28;6.18;;;2.80;;
73454;SDS011;61690;51.824;6.306;2023-02-15T08:21:57;5.32;;;2.53;;
73454;SDS011;61690;51.824;6.306;2023-02-15T08:24:25;5.03;;;2.35;;
73454;SDS011;61690;51.824;6.306;2023-02-15T08:26:51;6.32;;;2.10;;
73454;SDS011;61690;51.824;6.306;2023-02-15T08:29:19;5.27;;;2.57;;
73454;SDS011;61690;51.824;6.306;2023-02-15T08:31:47;4.88;;;2.25;;
73454;SDS011;61690;51.824;6.306;2023-02-15T08:34:14;5.50;;;2.83;;
73454;SDS011;61690;51.824;6.306;2023-02-15T08:36:41;5.30;;;2.50;;
73454;SDS011;61690;51.824;6.306;2023-02-15T08:39:09;5.97;;;2.20;;
73454;SDS011;61690;51.824;6.306;2023-02-15T08:41:36;5.50;;;2.78;;
73454;SDS011;61690;51.824;6.306;2023-02-15T08:44:04;6.18;;;2.55;;
73454;SDS011;61690;51.824;6.306;2023-02-15T08:46:32;5.00;;;2.50;;
73454;SDS011;61690;51.824;6.306;2023-02-15T08:48:59;4.80;;;2.20;;
73454;SDS011;61690;51.824;6.306;2023-02-15T08:51:26;7.05;;;2.47;;
73454;SDS011;61690;51.824;6.306;2023-02-15T08:53:54;5.60;;;2.50;;
73454;SDS011;61690;51.824;6.306;2023-02-15T08:56:23;4.63;;;2.23;;
73454;SDS011;61690;51.824;6.306;2023-02-15T08:58:49;4.85;;;2.30;;
73454;SDS011;61690;51.824;6.306;2023-02-15T09:01:19;5.60;;;2.60;;
73454;SDS011;61690;51.824;6.306;2023-02-15T09:03:46;4.63;;;2.20;;
73454;SDS011;61690;51.824;6.306;2023-02-15T09:06:16;5.78;;;2.47;;
73454;SDS011;61690;51.824;6.306;2023-02-15T09:08:42;5.07;;;2.42;;
73454;SDS011;61690;51.824;6.306;2023-02-15T09:13:47;5.87;;;2.27;;
73454;SDS011;61690;51.824;6.306;2023-02-15T09:16:24;6.82;;;2.90;;
73454;SDS011;61690;51.824;6.306;2023-02-15T09:18:51;7.28;;;2.42;;
73454;SDS011;61690;51.824;6.306;2023-02-15T09:21:18;5.10;;;2.55;;
73454;SDS011;61690;51.824;6.306;2023-02-15T09:23:47;7.45;;;2.63;;
73454;SDS011;61690;51.824;6.306;2023-02-15T09:26:15;5.60;;;2.40;;
73454;SDS011;61690;51.824;6.306;2023-02-15T09:28:42;6.35;;;2.58;;
73454;SDS011;61690;51.824;6.306;2023-02-15T09:31:17;7.45;;;2.67;;
73454;SDS011;61690;51.824;6.306;2023-02-15T09:33:48;6.37;;;2.40;;
73454;SDS011;61690;51.824;6.306;2023-02-15T09:38:41;7.05;;;2.85;;
73454;SDS011;61690;51.824;6.306;2023-02-15T09:43:56;7.35;;;2.83;;
73454;SDS011;61690;51.824;6.306;2023-02-15T09:55:59;6.38;;;2.10;;
73454;SDS011;61690;51.824;6.306;2023-02-15T10:06:32;7.20;;;2.50;;
73454;SDS011;61690;51.824;6.306;2023-02-15T10:09:12;6.53;;;2.50;;
73454;SDS011;61690;51.824;6.306;2023-02-15T10:28:45;4.60;;;2.30;;
73454;SDS011;61690;51.824;6.306;2023-02-15T10:34:39;6.40;;;2.40;;
73454;SDS011;61690;51.824;6.306;2023-02-15T10:37:29;5.55;;;2.33;;
73454;SDS011;61690;51.824;6.306;2023-02-15T10:50:59;7.53;;;2.13;;
73454;SDS011;61690;51.824;6.306;2023-02-15T11:01:42;8.77;;;2.30;;
73454;SDS011;61690;51.824;6.306;2023-02-15T11:06:42;5.30;;;2.10;;
73454;SDS011;61690;51.824;6.306;2023-02-15T11:09:19;6.45;;;2.78;;
73454;SDS011;61690;51.824;6.306;2023-02-15T11:11:49;7.60;;;2.78;;
73454;SDS011;61690;51.824;6.306;2023-02-15T11:14:20;6.28;;;3.03;;
73454;SDS011;61690;51.824;6.306;2023-02-15T11:17:07;6.80;;;2.63;;
73454;SDS011;61690;51.824;6.306;2023-02-15T11:19:53;7.33;;;2.60;;
73454;SDS011;61690;51.824;6.306;2023-02-15T11:22:38;13.60;;;2.92;;
73454;SDS011;61690;51.824;6.306;2023-02-15T11:25:14;5.68;;;2.67;;
73454;SDS011;61690;51.824;6.306;2023-02-15T11:27:42;7.15;;;2.42;;
73454;SDS011;61690;51.824;6.306;2023-02-15T11:30:17;5.75;;;2.60;;
73454;SDS011;61690;51.824;6.306;2023-02-15T11:32:50;6.73;;;2.50;;
73454;SDS011;61690;51.824;6.306;2023-02-15T11:38:33;6.30;;;2.53;;
73454;SDS011;61690;51.824;6.306;2023-02-15T11:41:05;6.35;;;2.40;;
73454;SDS011;61690;51.824;6.306;2023-02-15T11:43:53;5.10;;;2.50;;
73454;SDS011;61690;51.824;6.306;2023-02-15T11:46:23;5.70;;;2.60;;
73454;SDS011;61690;51.824;6.306;2023-02-15T11:48:48;5.22;;;2.47;;
73454;SDS011;61690;51.824;6.306;2023-02-15T11:51:14;8.10;;;2.40;;
73454;SDS011;61690;51.824;6.306;2023-02-15T11:53:42;7.10;;;2.42;;
73454;SDS011;61690;51.824;6.306;2023-02-15T11:56:13;5.73;;;2.60;;
73454;SDS011;61690;51.824;6.306;2023-02-15T11:58:45;6.67;;;2.20;;
73454;SDS011;61690;51.824;6.306;2023-02-15T12:01:32;7.20;;;2.60;;
73454;SDS011;61690;51.824;6.306;2023-02-15T12:04:04;6.40;;;2.22;;
73454;SDS011;61690;51.824;6.306;2023-02-15T12:06:37;6.88;;;2.50;;
73454;SDS011;61690;51.824;6.306;2023-02-15T12:11:49;8.33;;;2.43;;
73454;SDS011;61690;51.824;6.306;2023-02-15T12:14:14;6.30;;;2.40;;
73454;SDS011;61690;51.824;6.306;2023-02-15T12:16:52;15.20;;;8.40;;
73454;SDS011;61690;51.824;6.306;2023-02-15T12:19:39;23.70;;;13.70;;
73454;SDS011;61690;51.824;6.306;2023-02-15T12:22:05;22.30;;;12.80;;
73454;SDS011;61690;51.824;6.306;2023-02-15T12:24:46;19.25;;;11.25;;
73454;SDS011;61690;51.824;6.306;2023-02-15T12:27:33;18.33;;;9.83;;
73454;SDS011;61690;51.824;6.306;2023-02-15T12:30:04;16.08;;;9.50;;
73454;SDS011;61690;51.824;6.306;2023-02-15T12:32:54;15.88;;;9.30;;
73454;SDS011;61690;51.824;6.306;2023-02-15T12:37:54;14.18;;;7.65;;
73454;SDS011;61690;51.824;6.306;2023-02-15T12:40:24;14.77;;;6.77;;
73454;SDS011;61690;51.824;6.306;2023-02-15T12:42:53;13.27;;;6.85;;
73454;SDS011;61690;51.824;6.306;2023-02-15T12:45:32;11.45;;;6.47;;
73454;SDS011;61690;51.824;6.306;2023-02-15T12:48:20;11.13;;;6.35;;
73454;SDS011;61690;51.824;6.306;2023-02-15T12:50:46;12.53;;;5.60;;
73454;SDS011;61690;51.824;6.306;2023-02-15T12:55:52;8.63;;;4.97;;
73454;SDS011;61690;51.824;6.306;2023-02-15T12:58:22;8.88;;;4.75;;
73454;SDS011;61690;51.824;6.306;2023-02-15T13:01:23;8.20;;;4.20;;
73454;SDS011;61690;51.824;6.306;2023-02-15T13:03:54;7.63;;;4.03;;
73454;SDS011;61690;51.824;6.306;2023-02-15T13:06:29;7.80;;;4.03;;
73454;SDS011;61690;51.824;6.306;2023-02-15T13:08:58;8.63;;;3.90;;
73454;SDS011;61690;51.824;6.306;2023-02-15T13:11:32;7.00;;;3.92;;
73454;SDS011;61690;51.824;6.306;2023-02-15T13:14:03;7.57;;;4.00;;
73454;SDS011;61690;51.824;6.306;2023-02-15T13:16:43;7.07;;;3.80;;
73454;SDS011;61690;51.824;6.306;2023-02-15T13:19:15;7.40;;;4.10;;
73454;SDS011;61690;51.824;6.306;2023-02-15T13:21:46;6.38;;;3.78;;
73454;SDS011;61690;51.824;6.306;2023-02-15T13:24:27;7.43;;;3.75;;
73454;SDS011;61690;51.824;6.306;2023-02-15T13:26:57;6.13;;;3.63;;
73454;SDS011;61690;51.824;6.306;2023-02-15T13:29:30;7.27;;;3.50;;
73454;SDS011;61690;51.824;6.306;2023-02-15T13:32:02;6.45;;;3.35;;
73454;SDS011;61690;51.824;6.306;2023-02-15T13:34:33;6.90;;;3.45;;
73454;SDS011;61690;51.824;6.306;2023-02-15T13:37:04;6.13;;;3.30;;
73454;SDS011;61690;51.824;6.306;2023-02-15T13:39:48;7.32;;;3.30;;
73454;SDS011;61690;51.824;6.306;2023-02-15T13:45:00;8.02;;;3.40;;
73454;SDS011;61690;51.824;6.306;2023-02-15T14:00:43;6.50;;;3.22;;
73454;SDS011;61690;51.824;6.306;2023-02-15T14:03:12;7.10;;;3.17;;
73454;SDS011;61690;51.824;6.306;2023-02-15T14:06:14;7.30;;;3.40;;
73454;SDS011;61690;51.824;6.306;2023-02-15T14:19:59;5.97;;;3.38;;
73454;SDS011;61690;51.824;6.306;2023-02-15T14:23:00;6.40;;;3.30;;
73454;SDS011;61690;51.824;6.306;2023-02-15T14:25:43;11.52;;;3.15;;
73454;SDS011;61690;51.824;6.306;2023-02-15T14:28:16;7.85;;;3.40;;
73454;SDS011;61690;51.824;6.306;2023-02-15T14:30:52;9.15;;;3.45;;
73454;SDS011;61690;51.824;6.306;2023-02-15T14:33:29;8.75;;;3.30;;
73454;SDS011;61690;51.824;6.306;2023-02-15T14:36:09;6.83;;;2.90;;
73454;SDS011;61690;51.824;6.306;2023-02-15T14:38:46;6.55;;;3.08;;
73454;SDS011;61690;51.824;6.306;2023-02-15T14:41:39;8.45;;;3.13;;
73454;SDS011;61690;51.824;6.306;2023-02-15T14:44:23;8.38;;;3.30;;
73454;SDS011;61690;51.824;6.306;2023-02-15T14:47:03;7.28;;;3.25;;
73454;SDS011;61690;51.824;6.306;2023-02-15T14:49:35;9.20;;;3.23;;
73454;SDS011;61690;51.824;6.306;2023-02-15T14:52:03;8.48;;;3.33;;
73454;SDS011;61690;51.824;6.306;2023-02-15T15:04:56;6.33;;;2.80;;
73454;SDS011;61690;51.824;6.306;2023-02-15T15:07:25;7.35;;;3.03;;
73454;SDS011;61690;51.824;6.306;2023-02-15T15:10:32;5.75;;;2.83;;
73454;SDS011;61690;51.824;6.306;2023-02-15T15:17:59;7.50;;;3.13;;
73454;SDS011;61690;51.824;6.306;2023-02-15T15:25:41;6.05;;;2.80;;
73454;SDS011;61690;51.824;6.306;2023-02-15T15:28:06;6.63;;;3.20;;
73454;SDS011;61690;51.824;6.306;2023-02-15T15:32:59;8.47;;;2.93;;
73454;SDS011;61690;51.824;6.306;2023-02-15T15:50:14;5.82;;;2.90;;
73454;SDS011;61690;51.824;6.306;2023-02-15T15:52:43;6.43;;;2.80;;
73454;SDS011;61690;51.824;6.306;2023-02-15T15:55:18;8.27;;;2.97;;
73454;SDS011;61690;51.824;6.306;2023-02-15T15:57:47;5.40;;;2.60;;
73454;SDS011;61690;51.824;6.306;2023-02-15T16:00:28;6.10;;;2.60;;
73454;SDS011;61690;51.824;6.306;2023-02-15T16:03:00;6.93;;;2.70;;
73454;SDS011;61690;51.824;6.306;2023-02-15T16:05:25;7.05;;;3.00;;
73454;SDS011;61690;51.824;6.306;2023-02-15T16:07:51;6.33;;;3.00;;
73454;SDS011;61690;51.824;6.306;2023-02-15T16:10:23;6.27;;;2.93;;
73454;SDS011;61690;51.824;6.306;2023-02-15T16:12:50;6.20;;;2.83;;
73454;SDS011;61690;51.824;6.306;2023-02-15T16:15:20;5.38;;;2.65;;
73454;SDS011;61690;51.824;6.306;2023-02-15T16:17:52;8.20;;;2.85;;
73454;SDS011;61690;51.824;6.306;2023-02-15T16:20:29;7.90;;;2.87;;
73454;SDS011;61690;51.824;6.306;2023-02-15T16:28:11;6.13;;;2.90;;
73454;SDS011;61690;51.824;6.306;2023-02-15T16:30:37;6.25;;;2.78;;
73454;SDS011;61690;51.824;6.306;2023-02-15T16:33:14;6.93;;;2.60;;
73454;SDS011;61690;51.824;6.306;2023-02-15T16:35:54;5.70;;;2.90;;
73454;SDS011;61690;51.824;6.306;2023-02-15T16:38:34;5.93;;;3.00;;
73454;SDS011;61690;51.824;6.306;2023-02-15T16:41:07;7.72;;;3.08;;
73454;SDS011;61690;51.824;6.306;2023-02-15T16:43:34;7.43;;;2.90;;
73454;SDS011;61690;51.824;6.306;2023-02-15T16:46:06;9.20;;;3.20;;
73454;SDS011;61690;51.824;6.306;2023-02-15T16:48:35;6.40;;;2.72;;
73454;SDS011;61690;51.824;6.306;2023-02-15T16:51:06;5.50;;;2.72;;
73454;SDS011;61690;51.824;6.306;2023-02-15T16:53:32;8.13;;;3.00;;
73454;SDS011;61690;51.824;6.306;2023-02-15T16:56:01;6.67;;;2.97;;
73454;SDS011;61690;51.824;6.306;2023-02-15T16:58:44;6.10;;;3.10;;
73454;SDS011;61690;51.824;6.306;2023-02-15T17:01:14;5.87;;;2.90;;
73454;SDS011;61690;51.824;6.306;2023-02-15T17:03:40;6.15;;;3.08;;
73454;SDS011;61690;51.824;6.306;2023-02-15T17:06:23;6.43;;;2.92;;
73454;SDS011;61690;51.824;6.306;2023-02-15T17:09:02;7.13;;;2.80;;
73454;SDS011;61690;51.824;6.306;2023-02-15T17:11:35;6.03;;;2.70;;
73454;SDS011;61690;51.824;6.306;2023-02-15T17:16:33;6.15;;;3.08;;
73454;SDS011;61690;51.824;6.306;2023-02-15T17:19:02;6.70;;;2.47;;
73454;SDS011;61690;51.824;6.306;2023-02-15T17:21:37;7.40;;;2.95;;
73454;SDS011;61690;51.824;6.306;2023-02-15T17:24:06;6.10;;;2.53;;
73454;SDS011;61690;51.824;6.306;2023-02-15T17:26:40;5.95;;;2.97;;
73454;SDS011;61690;51.824;6.306;2023-02-15T17:32:14;11.02;;;4.25;;
73454;SDS011;61690;51.824;6.306;2023-02-15T17:34:48;5.70;;;2.95;;
73454;SDS011;61690;51.824;6.306;2023-02-15T17:40:20;8.05;;;3.00;;
73454;SDS011;61690;51.824;6.306;2023-02-15T17:42:47;6.97;;;3.30;;
73454;SDS011;61690;51.824;6.306;2023-02-15T17:45:13;5.70;;;2.55;;
73454;SDS011;61690;51.824;6.306;2023-02-15T17:47:39;7.07;;;3.00;;
73454;SDS011;61690;51.824;6.306;2023-02-15T17:50:05;5.85;;;3.03;;
73454;SDS011;61690;51.824;6.306;2023-02-15T17:52:32;6.63;;;3.20;;
73454;SDS011;61690;51.824;6.306;2023-02-15T17:54:58;7.38;;;3.08;;
73454;SDS011;61690;51.824;6.306;2023-02-15T17:57:43;7.88;;;3.40;;
73454;SDS011;61690;51.824;6.306;2023-02-15T18:00:09;7.17;;;3.43;;
73454;SDS011;61690;51.824;6.306;2023-02-15T18:02:56;5.85;;;3.10;;
73454;SDS011;61690;51.824;6.306;2023-02-15T18:05:41;7.67;;;2.90;;
73454;SDS011;61690;51.824;6.306;2023-02-15T18:08:26;6.65;;;3.03;;
73454;SDS011;61690;51.824;6.306;2023-02-15T18:11:11;6.75;;;2.80;;
73454;SDS011;61690;51.824;6.306;2023-02-15T18:13:55;12.13;;;3.45;;
73454;SDS011;61690;51.824;6.306;2023-02-15T18:16:25;14.02;;;3.88;;
73454;SDS011;61690;51.824;6.306;2023-02-15T18:18:54;7.13;;;3.43;;
73454;SDS011;61690;51.824;6.306;2023-02-15T18:21:20;10.80;;;3.22;;
73454;SDS011;61690;51.824;6.306;2023-02-15T18:23:46;7.97;;;3.00;;
73454;SDS011;61690;51.824;6.306;2023-02-15T18:26:13;7.63;;;3.13;;
73454;SDS011;61690;51.824;6.306;2023-02-15T18:28:43;10.00;;;3.13;;
73454;SDS011;61690;51.824;6.306;2023-02-15T18:31:09;10.67;;;3.50;;
73454;SDS011;61690;51.824;6.306;2023-02-15T18:33:37;8.17;;;3.10;;
73454;SDS011;61690;51.824;6.306;2023-02-15T18:36:06;6.65;;;3.00;;
73454;SDS011;61690;51.824;6.306;2023-02-15T18:38:37;7.50;;;3.38;;
73454;SDS011;61690;51.824;6.306;2023-02-15T18:41:03;16.40;;;3.67;;
73454;SDS011;61690;51.824;6.306;2023-02-15T18:43:29;7.28;;;3.38;;
73454;SDS011;61690;51.824;6.306;2023-02-15T18:45:55;10.30;;;3.30;;
73454;SDS011;61690;51.824;6.306;2023-02-15T18:48:20;8.60;;;3.80;;
73454;SDS011;61690;51.824;6.306;2023-02-15T18:50:45;6.70;;;3.30;;
73454;SDS011;61690;51.824;6.306;2023-02-15T18:53:14;8.07;;;3.60;;
73454;SDS011;61690;51.824;6.306;2023-02-15T18:55:42;7.60;;;3.30;;
73454;SDS011;61690;51.824;6.306;2023-02-15T18:58:09;8.50;;;3.40;;